sensor_id;sensor_type;location;lat;lon;timestamp;P1;durP1;ratioP1;P2;durP2;ratioP2
47161;SDS011;32921;53.256;8.198;2024-01-30T00:01:15;432.73;;;401.48;;
47161;SDS011;32921;53.256;8.198;2024-01-30T00:03:41;434.27;;;402.95;;
47161;SDS011;32921;53.256;8.198;2024-01-30T00:06:07;439.42;;;407.55;;
47161;SDS011;32921;53.256;8.198;2024-01-30T00:08:33;447.77;;;415.25;;
47161;SDS011;32921;53.256;8.198;2024-01-30T00:10:59;458.23;;;424.50;;
47161;SDS011;32921;53.256;8.198;2024-01-30T00:13:24;401.15;;;372.10;;
47161;SDS011;32921;53.256;8.198;2024-01-30T00:15:50;414.65;;;384.00;;
47161;SDS011;32921;53.256;8.198;2024-01-30T00:18:16;402.45;;;373.88;;
47161;SDS011;32921;53.256;8.198;2024-01-30T00:20:41;393.80;;;365.10;;
47161;SDS011;32921;53.256;8.198;2024-01-30T00:23:08;388.10;;;360.58;;
47161;SDS011;32921;53.256;8.198;2024-01-30T00:25:33;402.65;;;373.98;;
47161;SDS011;32921;53.256;8.198;2024-01-30T00:27:59;400.23;;;371.50;;
47161;SDS011;32921;53.256;8.198;2024-01-30T00:30:25;423.75;;;393.00;;
47161;SDS011;32921;53.256;8.198;2024-01-30T00:32:51;449.83;;;417.63;;
47161;SDS011;32921;53.256;8.198;2024-01-30T00:35:16;433.63;;;401.88;;
47161;SDS011;32921;53.256;8.198;2024-01-30T00:37:42;369.73;;;343.25;;
47161;SDS011;32921;53.256;8.198;2024-01-30T00:40:08;403.50;;;373.83;;
47161;SDS011;32921;53.256;8.198;2024-01-30T00:42:38;401.75;;;372.88;;
47161;SDS011;32921;53.256;8.198;2024-01-30T00:45:04;378.35;;;351.33;;
47161;SDS011;32921;53.256;8.198;2024-01-30T00:47:31;386.73;;;359.77;;
47161;SDS011;32921;53.256;8.198;2024-01-30T00:49:58;389.55;;;361.73;;
47161;SDS011;32921;53.256;8.198;2024-01-30T00:52:23;400.23;;;371.23;;
47161;SDS011;32921;53.256;8.198;2024-01-30T00:54:49;415.63;;;385.70;;
47161;SDS011;32921;53.256;8.198;2024-01-30T00:57:14;427.73;;;397.40;;
47161;SDS011;32921;53.256;8.198;2024-01-30T00:59:40;386.15;;;358.83;;
47161;SDS011;32921;53.256;8.198;2024-01-30T01:02:05;400.52;;;372.25;;
47161;SDS011;32921;53.256;8.198;2024-01-30T01:04:31;402.73;;;374.30;;
47161;SDS011;32921;53.256;8.198;2024-01-30T01:06:56;468.38;;;434.20;;
47161;SDS011;32921;53.256;8.198;2024-01-30T01:09:22;443.20;;;411.25;;
47161;SDS011;32921;53.256;8.198;2024-01-30T01:11:48;426.33;;;395.88;;
47161;SDS011;32921;53.256;8.198;2024-01-30T01:14:13;419.00;;;388.92;;
47161;SDS011;32921;53.256;8.198;2024-01-30T01:16:39;453.38;;;420.67;;
47161;SDS011;32921;53.256;8.198;2024-01-30T01:19:04;454.88;;;421.58;;
47161;SDS011;32921;53.256;8.198;2024-01-30T01:21:30;465.58;;;431.77;;
47161;SDS011;32921;53.256;8.198;2024-01-30T01:23:55;447.60;;;414.55;;
47161;SDS011;32921;53.256;8.198;2024-01-30T01:26:21;456.38;;;423.08;;
47161;SDS011;32921;53.256;8.198;2024-01-30T01:28:47;437.73;;;406.17;;
47161;SDS011;32921;53.256;8.198;2024-01-30T01:31:13;466.55;;;432.77;;
47161;SDS011;32921;53.256;8.198;2024-01-30T01:33:38;539.50;;;500.35;;
47161;SDS011;32921;53.256;8.198;2024-01-30T01:36:04;553.80;;;513.55;;
47161;SDS011;32921;53.256;8.198;2024-01-30T01:38:31;495.25;;;459.63;;
47161;SDS011;32921;53.256;8.198;2024-01-30T01:40:57;527.35;;;488.67;;
47161;SDS011;32921;53.256;8.198;2024-01-30T01:43:22;486.27;;;451.13;;
47161;SDS011;32921;53.256;8.198;2024-01-30T01:45:48;520.20;;;482.73;;
47161;SDS011;32921;53.256;8.198;2024-01-30T01:48:14;546.83;;;507.17;;
47161;SDS011;32921;53.256;8.198;2024-01-30T01:50:40;586.13;;;543.30;;
47161;SDS011;32921;53.256;8.198;2024-01-30T01:53:07;566.22;;;525.53;;
47161;SDS011;32921;53.256;8.198;2024-01-30T01:55:33;596.72;;;552.97;;
47161;SDS011;32921;53.256;8.198;2024-01-30T01:58:00;587.75;;;545.13;;
47161;SDS011;32921;53.256;8.198;2024-01-30T02:00:35;609.92;;;564.17;;
47161;SDS011;32921;53.256;8.198;2024-01-30T02:03:04;620.50;;;574.47;;
47161;SDS011;32921;53.256;8.198;2024-01-30T02:05:31;619.03;;;572.40;;
47161;SDS011;32921;53.256;8.198;2024-01-30T02:07:57;648.88;;;601.03;;
47161;SDS011;32921;53.256;8.198;2024-01-30T02:10:23;592.47;;;548.17;;
47161;SDS011;32921;53.256;8.198;2024-01-30T02:12:49;614.38;;;569.10;;
47161;SDS011;32921;53.256;8.198;2024-01-30T02:15:15;695.90;;;644.20;;
47161;SDS011;32921;53.256;8.198;2024-01-30T02:17:40;624.60;;;578.22;;
47161;SDS011;32921;53.256;8.198;2024-01-30T02:20:06;615.97;;;569.17;;
47161;SDS011;32921;53.256;8.198;2024-01-30T02:22:32;627.40;;;580.50;;
47161;SDS011;32921;53.256;8.198;2024-01-30T02:24:59;665.38;;;614.97;;
47161;SDS011;32921;53.256;8.198;2024-01-30T02:27:25;643.70;;;593.97;;
47161;SDS011;32921;53.256;8.198;2024-01-30T02:29:50;624.97;;;577.00;;
47161;SDS011;32921;53.256;8.198;2024-01-30T02:32:16;621.78;;;574.80;;
47161;SDS011;32921;53.256;8.198;2024-01-30T02:34:42;644.88;;;596.35;;
47161;SDS011;32921;53.256;8.198;2024-01-30T02:37:07;596.85;;;551.70;;
47161;SDS011;32921;53.256;8.198;2024-01-30T02:39:33;645.45;;;596.58;;
47161;SDS011;32921;53.256;8.198;2024-01-30T02:41:59;579.38;;;535.42;;
47161;SDS011;32921;53.256;8.198;2024-01-30T02:44:25;589.80;;;545.70;;
47161;SDS011;32921;53.256;8.198;2024-01-30T02:46:50;604.33;;;558.45;;
47161;SDS011;32921;53.256;8.198;2024-01-30T02:49:16;626.83;;;579.88;;
47161;SDS011;32921;53.256;8.198;2024-01-30T02:51:41;595.72;;;552.15;;
47161;SDS011;32921;53.256;8.198;2024-01-30T02:54:07;597.10;;;553.53;;
47161;SDS011;32921;53.256;8.198;2024-01-30T02:56:32;626.25;;;579.90;;
47161;SDS011;32921;53.256;8.198;2024-01-30T02:58:58;596.03;;;552.60;;
47161;SDS011;32921;53.256;8.198;2024-01-30T03:01:24;565.30;;;524.58;;
47161;SDS011;32921;53.256;8.198;2024-01-30T03:03:49;591.03;;;548.55;;
47161;SDS011;32921;53.256;8.198;2024-01-30T03:06:15;611.33;;;567.58;;
47161;SDS011;32921;53.256;8.198;2024-01-30T03:08:42;511.77;;;475.70;;
47161;SDS011;32921;53.256;8.198;2024-01-30T03:11:08;579.33;;;538.08;;
47161;SDS011;32921;53.256;8.198;2024-01-30T03:13:33;568.40;;;529.30;;
47161;SDS011;32921;53.256;8.198;2024-01-30T03:15:59;525.05;;;487.15;;
47161;SDS011;32921;53.256;8.198;2024-01-30T03:18:25;513.67;;;477.65;;
47161;SDS011;32921;53.256;8.198;2024-01-30T03:20:50;512.15;;;477.05;;
47161;SDS011;32921;53.256;8.198;2024-01-30T03:23:16;517.28;;;481.70;;
47161;SDS011;32921;53.256;8.198;2024-01-30T03:25:41;496.65;;;461.80;;
47161;SDS011;32921;53.256;8.198;2024-01-30T03:28:07;556.28;;;517.90;;
47161;SDS011;32921;53.256;8.198;2024-01-30T03:30:34;515.05;;;479.83;;
47161;SDS011;32921;53.256;8.198;2024-01-30T03:32:59;523.65;;;487.83;;
47161;SDS011;32921;53.256;8.198;2024-01-30T03:35:25;488.33;;;455.60;;
47161;SDS011;32921;53.256;8.198;2024-01-30T03:37:50;491.10;;;458.30;;
47161;SDS011;32921;53.256;8.198;2024-01-30T03:40:16;495.77;;;462.42;;
47161;SDS011;32921;53.256;8.198;2024-01-30T03:42:42;481.10;;;449.05;;
47161;SDS011;32921;53.256;8.198;2024-01-30T03:45:07;480.17;;;447.65;;
47161;SDS011;32921;53.256;8.198;2024-01-30T03:47:33;487.50;;;455.08;;
47161;SDS011;32921;53.256;8.198;2024-01-30T03:49:59;453.35;;;423.25;;
47161;SDS011;32921;53.256;8.198;2024-01-30T03:52:24;457.67;;;426.98;;
47161;SDS011;32921;53.256;8.198;2024-01-30T03:54:50;456.17;;;425.95;;
47161;SDS011;32921;53.256;8.198;2024-01-30T03:57:15;455.13;;;424.48;;
47161;SDS011;32921;53.256;8.198;2024-01-30T03:59:42;436.02;;;406.83;;
47161;SDS011;32921;53.256;8.198;2024-01-30T04:02:07;425.23;;;396.35;;
47161;SDS011;32921;53.256;8.198;2024-01-30T04:04:34;402.85;;;375.65;;
47161;SDS011;32921;53.256;8.198;2024-01-30T04:07:00;413.42;;;385.67;;
47161;SDS011;32921;53.256;8.198;2024-01-30T04:09:25;410.08;;;382.60;;
47161;SDS011;32921;53.256;8.198;2024-01-30T04:11:53;405.42;;;378.15;;
47161;SDS011;32921;53.256;8.198;2024-01-30T04:14:19;385.77;;;360.13;;
47161;SDS011;32921;53.256;8.198;2024-01-30T04:16:44;370.73;;;346.00;;
47161;SDS011;32921;53.256;8.198;2024-01-30T04:19:10;391.92;;;365.08;;
47161;SDS011;32921;53.256;8.198;2024-01-30T04:21:35;344.65;;;321.13;;
47161;SDS011;32921;53.256;8.198;2024-01-30T04:24:01;378.95;;;352.88;;
47161;SDS011;32921;53.256;8.198;2024-01-30T04:26:27;372.20;;;346.70;;
47161;SDS011;32921;53.256;8.198;2024-01-30T04:28:52;338.60;;;315.13;;
47161;SDS011;32921;53.256;8.198;2024-01-30T04:31:18;333.05;;;310.00;;
47161;SDS011;32921;53.256;8.198;2024-01-30T04:33:43;351.05;;;326.13;;
47161;SDS011;32921;53.256;8.198;2024-01-30T04:36:09;307.85;;;287.05;;
47161;SDS011;32921;53.256;8.198;2024-01-30T04:38:35;351.98;;;326.88;;
47161;SDS011;32921;53.256;8.198;2024-01-30T04:41:01;313.20;;;291.13;;
47161;SDS011;32921;53.256;8.198;2024-01-30T04:43:26;358.50;;;332.88;;
47161;SDS011;32921;53.256;8.198;2024-01-30T04:45:52;306.98;;;285.25;;
47161;SDS011;32921;53.256;8.198;2024-01-30T04:48:18;328.63;;;305.17;;
47161;SDS011;32921;53.256;8.198;2024-01-30T04:50:43;324.85;;;301.67;;
47161;SDS011;32921;53.256;8.198;2024-01-30T04:53:09;330.77;;;306.85;;
47161;SDS011;32921;53.256;8.198;2024-01-30T04:55:35;276.27;;;256.67;;
47161;SDS011;32921;53.256;8.198;2024-01-30T04:58:01;352.92;;;327.17;;
47161;SDS011;32921;53.256;8.198;2024-01-30T05:00:27;338.45;;;314.15;;
47161;SDS011;32921;53.256;8.198;2024-01-30T05:02:52;317.98;;;294.42;;
47161;SDS011;32921;53.256;8.198;2024-01-30T05:05:19;320.63;;;297.10;;
47161;SDS011;32921;53.256;8.198;2024-01-30T05:07:46;304.42;;;281.83;;
47161;SDS011;32921;53.256;8.198;2024-01-30T05:10:12;367.05;;;339.48;;
47161;SDS011;32921;53.256;8.198;2024-01-30T05:12:38;328.92;;;304.63;;
47161;SDS011;32921;53.256;8.198;2024-01-30T05:15:04;304.70;;;282.38;;
47161;SDS011;32921;53.256;8.198;2024-01-30T05:17:30;336.70;;;311.65;;
47161;SDS011;32921;53.256;8.198;2024-01-30T05:19:56;290.15;;;264.95;;
47161;SDS011;32921;53.256;8.198;2024-01-30T05:22:21;310.20;;;287.48;;
47161;SDS011;32921;53.256;8.198;2024-01-30T05:24:47;343.00;;;317.92;;
47161;SDS011;32921;53.256;8.198;2024-01-30T05:27:12;312.42;;;289.40;;
47161;SDS011;32921;53.256;8.198;2024-01-30T05:29:39;305.25;;;283.08;;
47161;SDS011;32921;53.256;8.198;2024-01-30T05:32:05;297.63;;;275.98;;
47161;SDS011;32921;53.256;8.198;2024-01-30T05:34:31;301.65;;;278.98;;
47161;SDS011;32921;53.256;8.198;2024-01-30T05:36:57;364.92;;;337.23;;
47161;SDS011;32921;53.256;8.198;2024-01-30T05:39:22;392.98;;;363.38;;
47161;SDS011;32921;53.256;8.198;2024-01-30T05:41:48;335.77;;;310.98;;
47161;SDS011;32921;53.256;8.198;2024-01-30T05:44:14;321.15;;;298.20;;
47161;SDS011;32921;53.256;8.198;2024-01-30T05:46:39;318.83;;;295.58;;
47161;SDS011;32921;53.256;8.198;2024-01-30T05:49:05;334.88;;;309.95;;
47161;SDS011;32921;53.256;8.198;2024-01-30T05:51:31;364.15;;;337.15;;
47161;SDS011;32921;53.256;8.198;2024-01-30T05:53:56;367.48;;;340.05;;
47161;SDS011;32921;53.256;8.198;2024-01-30T05:56:22;314.83;;;291.58;;
47161;SDS011;32921;53.256;8.198;2024-01-30T05:58:47;353.35;;;327.23;;
47161;SDS011;32921;53.256;8.198;2024-01-30T06:01:15;372.33;;;344.40;;
47161;SDS011;32921;53.256;8.198;2024-01-30T06:03:40;405.77;;;375.08;;
47161;SDS011;32921;53.256;8.198;2024-01-30T06:06:08;391.42;;;361.60;;
47161;SDS011;32921;53.256;8.198;2024-01-30T06:08:34;354.88;;;327.95;;
47161;SDS011;32921;53.256;8.198;2024-01-30T06:10:59;346.17;;;320.10;;
47161;SDS011;32921;53.256;8.198;2024-01-30T06:13:25;351.40;;;325.25;;
47161;SDS011;32921;53.256;8.198;2024-01-30T06:15:51;336.52;;;311.60;;
47161;SDS011;32921;53.256;8.198;2024-01-30T06:18:17;308.40;;;285.83;;
47161;SDS011;32921;53.256;8.198;2024-01-30T06:20:43;326.10;;;302.10;;
47161;SDS011;32921;53.256;8.198;2024-01-30T06:23:09;315.52;;;292.70;;
47161;SDS011;32921;53.256;8.198;2024-01-30T06:25:35;356.48;;;330.10;;
47161;SDS011;32921;53.256;8.198;2024-01-30T06:28:00;347.90;;;322.05;;
47161;SDS011;32921;53.256;8.198;2024-01-30T06:30:26;319.50;;;295.67;;
47161;SDS011;32921;53.256;8.198;2024-01-30T06:32:51;378.13;;;350.25;;
47161;SDS011;32921;53.256;8.198;2024-01-30T06:35:17;389.60;;;360.48;;
47161;SDS011;32921;53.256;8.198;2024-01-30T06:37:43;331.00;;;306.10;;
47161;SDS011;32921;53.256;8.198;2024-01-30T06:40:09;340.48;;;315.52;;
47161;SDS011;32921;53.256;8.198;2024-01-30T06:42:35;357.40;;;331.23;;
47161;SDS011;32921;53.256;8.198;2024-01-30T06:45:00;346.10;;;320.40;;
47161;SDS011;32921;53.256;8.198;2024-01-30T06:47:26;309.05;;;286.77;;
47161;SDS011;32921;53.256;8.198;2024-01-30T06:49:51;332.70;;;308.65;;
47161;SDS011;32921;53.256;8.198;2024-01-30T06:52:17;357.60;;;331.70;;
47161;SDS011;32921;53.256;8.198;2024-01-30T06:54:43;404.73;;;375.00;;
47161;SDS011;32921;53.256;8.198;2024-01-30T06:57:08;368.25;;;341.50;;
47161;SDS011;32921;53.256;8.198;2024-01-30T06:59:37;350.50;;;325.05;;
47161;SDS011;32921;53.256;8.198;2024-01-30T07:02:08;324.83;;;301.73;;
47161;SDS011;32921;53.256;8.198;2024-01-30T07:04:34;342.63;;;317.58;;
47161;SDS011;32921;53.256;8.198;2024-01-30T07:07:02;370.60;;;343.88;;
47161;SDS011;32921;53.256;8.198;2024-01-30T07:09:29;371.90;;;344.77;;
47161;SDS011;32921;53.256;8.198;2024-01-30T07:11:55;339.80;;;314.90;;
47161;SDS011;32921;53.256;8.198;2024-01-30T07:14:23;376.83;;;349.67;;
47161;SDS011;32921;53.256;8.198;2024-01-30T07:16:49;346.70;;;321.85;;
47161;SDS011;32921;53.256;8.198;2024-01-30T07:19:15;311.50;;;289.48;;
47161;SDS011;32921;53.256;8.198;2024-01-30T07:21:41;336.80;;;312.23;;
47161;SDS011;32921;53.256;8.198;2024-01-30T07:24:06;299.75;;;278.65;;
47161;SDS011;32921;53.256;8.198;2024-01-30T07:26:32;323.38;;;300.63;;
47161;SDS011;32921;53.256;8.198;2024-01-30T07:28:57;342.70;;;318.63;;
47161;SDS011;32921;53.256;8.198;2024-01-30T07:31:23;350.92;;;325.52;;
47161;SDS011;32921;53.256;8.198;2024-01-30T07:33:49;390.95;;;363.27;;
47161;SDS011;32921;53.256;8.198;2024-01-30T07:36:14;391.42;;;363.13;;
47161;SDS011;32921;53.256;8.198;2024-01-30T07:38:40;425.58;;;394.95;;
47161;SDS011;32921;53.256;8.198;2024-01-30T07:41:05;415.92;;;386.13;;
47161;SDS011;32921;53.256;8.198;2024-01-30T07:43:31;403.10;;;374.65;;
47161;SDS011;32921;53.256;8.198;2024-01-30T07:45:57;410.25;;;381.65;;
47161;SDS011;32921;53.256;8.198;2024-01-30T07:48:22;414.77;;;385.95;;
47161;SDS011;32921;53.256;8.198;2024-01-30T07:50:48;433.05;;;402.50;;
47161;SDS011;32921;53.256;8.198;2024-01-30T07:53:13;463.45;;;430.63;;
47161;SDS011;32921;53.256;8.198;2024-01-30T07:55:39;480.63;;;446.45;;
47161;SDS011;32921;53.256;8.198;2024-01-30T07:58:05;529.85;;;492.58;;
47161;SDS011;32921;53.256;8.198;2024-01-30T08:00:30;522.25;;;484.55;;
47161;SDS011;32921;53.256;8.198;2024-01-30T08:02:56;531.28;;;493.20;;
47161;SDS011;32921;53.256;8.198;2024-01-30T08:05:22;570.88;;;529.20;;
47161;SDS011;32921;53.256;8.198;2024-01-30T08:07:48;616.85;;;571.35;;
47161;SDS011;32921;53.256;8.198;2024-01-30T08:10:14;654.33;;;605.85;;
47161;SDS011;32921;53.256;8.198;2024-01-30T08:12:40;607.30;;;561.28;;
47161;SDS011;32921;53.256;8.198;2024-01-30T08:15:06;574.10;;;531.08;;
47161;SDS011;32921;53.256;8.198;2024-01-30T08:17:32;633.22;;;585.63;;
47161;SDS011;32921;53.256;8.198;2024-01-30T08:19:58;679.28;;;627.83;;
47161;SDS011;32921;53.256;8.198;2024-01-30T08:22:24;663.65;;;613.40;;
47161;SDS011;32921;53.256;8.198;2024-01-30T08:24:49;667.60;;;616.65;;
47161;SDS011;32921;53.256;8.198;2024-01-30T08:27:15;614.90;;;567.53;;
47161;SDS011;32921;53.256;8.198;2024-01-30T08:29:41;681.10;;;629.40;;
47161;SDS011;32921;53.256;8.198;2024-01-30T08:32:07;715.67;;;661.42;;
47161;SDS011;32921;53.256;8.198;2024-01-30T08:34:32;720.92;;;666.38;;
47161;SDS011;32921;53.256;8.198;2024-01-30T08:36:58;684.60;;;633.13;;
47161;SDS011;32921;53.256;8.198;2024-01-30T08:39:24;653.00;;;603.85;;
47161;SDS011;32921;53.256;8.198;2024-01-30T08:41:49;641.30;;;593.30;;
47161;SDS011;32921;53.256;8.198;2024-01-30T08:44:15;653.55;;;604.45;;
47161;SDS011;32921;53.256;8.198;2024-01-30T08:46:42;668.17;;;618.42;;
47161;SDS011;32921;53.256;8.198;2024-01-30T08:49:08;679.90;;;629.40;;
47161;SDS011;32921;53.256;8.198;2024-01-30T08:51:34;697.53;;;645.42;;
47161;SDS011;32921;53.256;8.198;2024-01-30T08:53:59;692.50;;;641.10;;
47161;SDS011;32921;53.256;8.198;2024-01-30T08:56:25;642.25;;;593.95;;
47161;SDS011;32921;53.256;8.198;2024-01-30T08:58:51;668.53;;;617.83;;
47161;SDS011;32921;53.256;8.198;2024-01-30T09:01:16;672.80;;;623.03;;
47161;SDS011;32921;53.256;8.198;2024-01-30T09:03:42;678.28;;;627.65;;
47161;SDS011;32921;53.256;8.198;2024-01-30T09:06:10;704.50;;;651.42;;
47161;SDS011;32921;53.256;8.198;2024-01-30T09:08:36;638.90;;;590.55;;
47161;SDS011;32921;53.256;8.198;2024-01-30T09:11:08;650.80;;;600.92;;
47161;SDS011;32921;53.256;8.198;2024-01-30T09:13:37;660.45;;;611.22;;
47161;SDS011;32921;53.256;8.198;2024-01-30T09:16:03;625.35;;;578.00;;
47161;SDS011;32921;53.256;8.198;2024-01-30T09:18:29;601.55;;;555.78;;
47161;SDS011;32921;53.256;8.198;2024-01-30T09:20:55;640.70;;;592.47;;
47161;SDS011;32921;53.256;8.198;2024-01-30T09:23:20;586.90;;;542.35;;
47161;SDS011;32921;53.256;8.198;2024-01-30T09:25:46;586.95;;;542.33;;
47161;SDS011;32921;53.256;8.198;2024-01-30T09:28:12;577.88;;;533.80;;
47161;SDS011;32921;53.256;8.198;2024-01-30T09:30:38;563.38;;;520.38;;
47161;SDS011;32921;53.256;8.198;2024-01-30T09:33:03;584.17;;;539.15;;
47161;SDS011;32921;53.256;8.198;2024-01-30T09:35:29;541.17;;;498.88;;
47161;SDS011;32921;53.256;8.198;2024-01-30T09:37:55;545.88;;;503.33;;
47161;SDS011;32921;53.256;8.198;2024-01-30T09:40:22;472.50;;;435.85;;
47161;SDS011;32921;53.256;8.198;2024-01-30T09:42:47;539.95;;;497.73;;
47161;SDS011;32921;53.256;8.198;2024-01-30T09:45:15;516.30;;;476.00;;
47161;SDS011;32921;53.256;8.198;2024-01-30T09:47:44;533.40;;;491.70;;
47161;SDS011;32921;53.256;8.198;2024-01-30T09:50:11;507.83;;;468.35;;
47161;SDS011;32921;53.256;8.198;2024-01-30T09:52:37;508.65;;;467.60;;
47161;SDS011;32921;53.256;8.198;2024-01-30T09:55:04;496.48;;;456.42;;
47161;SDS011;32921;53.256;8.198;2024-01-30T09:57:30;524.55;;;482.58;;
47161;SDS011;32921;53.256;8.198;2024-01-30T09:59:56;485.85;;;446.70;;
47161;SDS011;32921;53.256;8.198;2024-01-30T10:02:22;522.38;;;479.25;;
47161;SDS011;32921;53.256;8.198;2024-01-30T10:04:48;537.33;;;493.90;;
47161;SDS011;32921;53.256;8.198;2024-01-30T10:07:15;543.30;;;498.92;;
47161;SDS011;32921;53.256;8.198;2024-01-30T10:09:41;528.10;;;485.20;;
47161;SDS011;32921;53.256;8.198;2024-01-30T10:12:08;551.08;;;505.92;;
47161;SDS011;32921;53.256;8.198;2024-01-30T10:14:37;525.85;;;483.08;;
47161;SDS011;32921;53.256;8.198;2024-01-30T10:17:10;527.95;;;484.90;;
47161;SDS011;32921;53.256;8.198;2024-01-30T10:19:40;504.40;;;463.00;;
47161;SDS011;32921;53.256;8.198;2024-01-30T10:22:06;507.20;;;466.25;;
47161;SDS011;32921;53.256;8.198;2024-01-30T10:24:33;591.17;;;542.72;;
47161;SDS011;32921;53.256;8.198;2024-01-30T10:26:59;557.08;;;511.02;;
47161;SDS011;32921;53.256;8.198;2024-01-30T10:29:24;602.03;;;551.85;;
47161;SDS011;32921;53.256;8.198;2024-01-30T10:32:03;581.60;;;533.22;;
47161;SDS011;32921;53.256;8.198;2024-01-30T10:34:29;540.28;;;495.45;;
47161;SDS011;32921;53.256;8.198;2024-01-30T10:36:59;623.72;;;571.83;;
47161;SDS011;32921;53.256;8.198;2024-01-30T10:39:30;640.05;;;586.40;;
47161;SDS011;32921;53.256;8.198;2024-01-30T10:41:59;633.25;;;580.55;;
47161;SDS011;32921;53.256;8.198;2024-01-30T10:44:28;618.22;;;566.65;;
47161;SDS011;32921;53.256;8.198;2024-01-30T10:47:03;582.88;;;533.90;;
47161;SDS011;32921;53.256;8.198;2024-01-30T10:49:33;623.55;;;570.95;;
47161;SDS011;32921;53.256;8.198;2024-01-30T10:51:59;589.88;;;540.35;;
47161;SDS011;32921;53.256;8.198;2024-01-30T10:54:25;638.75;;;585.60;;
47161;SDS011;32921;53.256;8.198;2024-01-30T10:56:52;689.92;;;633.53;;
47161;SDS011;32921;53.256;8.198;2024-01-30T10:59:18;650.25;;;598.35;;
47161;SDS011;32921;53.256;8.198;2024-01-30T11:01:46;660.45;;;606.65;;
47161;SDS011;32921;53.256;8.198;2024-01-30T11:04:11;688.13;;;632.92;;
47161;SDS011;32921;53.256;8.198;2024-01-30T11:06:41;684.28;;;629.45;;
47161;SDS011;32921;53.256;8.198;2024-01-30T11:09:10;693.30;;;637.53;;
47161;SDS011;32921;53.256;8.198;2024-01-30T11:11:47;684.85;;;629.78;;
47161;SDS011;32921;53.256;8.198;2024-01-30T11:14:22;663.63;;;609.28;;
47161;SDS011;32921;53.256;8.198;2024-01-30T11:16:49;662.70;;;608.97;;
47161;SDS011;32921;53.256;8.198;2024-01-30T11:19:15;698.42;;;642.30;;
47161;SDS011;32921;53.256;8.198;2024-01-30T11:21:53;636.25;;;583.88;;
47161;SDS011;32921;53.256;8.198;2024-01-30T11:24:25;631.42;;;580.45;;
47161;SDS011;32921;53.256;8.198;2024-01-30T11:26:57;669.00;;;615.58;;
47161;SDS011;32921;53.256;8.198;2024-01-30T11:29:27;696.95;;;640.65;;
47161;SDS011;32921;53.256;8.198;2024-01-30T11:31:53;676.95;;;622.17;;
47161;SDS011;32921;53.256;8.198;2024-01-30T11:34:20;682.80;;;627.40;;
47161;SDS011;32921;53.256;8.198;2024-01-30T11:36:48;666.00;;;612.50;;
47161;SDS011;32921;53.256;8.198;2024-01-30T11:39:31;676.08;;;621.67;;
47161;SDS011;32921;53.256;8.198;2024-01-30T11:41:57;645.92;;;593.40;;
47161;SDS011;32921;53.256;8.198;2024-01-30T11:44:24;699.53;;;642.95;;
47161;SDS011;32921;53.256;8.198;2024-01-30T11:46:51;676.70;;;622.05;;
47161;SDS011;32921;53.256;8.198;2024-01-30T11:49:17;702.47;;;645.70;;
47161;SDS011;32921;53.256;8.198;2024-01-30T11:51:45;658.22;;;605.72;;
47161;SDS011;32921;53.256;8.198;2024-01-30T11:54:13;676.78;;;622.70;;
47161;SDS011;32921;53.256;8.198;2024-01-30T11:56:39;686.97;;;632.88;;
47161;SDS011;32921;53.256;8.198;2024-01-30T11:59:05;668.55;;;615.58;;
47161;SDS011;32921;53.256;8.198;2024-01-30T12:01:31;695.63;;;639.33;;
47161;SDS011;32921;53.256;8.198;2024-01-30T12:03:57;652.28;;;599.42;;
47161;SDS011;32921;53.256;8.198;2024-01-30T12:06:23;657.25;;;604.70;;
47161;SDS011;32921;53.256;8.198;2024-01-30T12:08:58;629.15;;;578.50;;
47161;SDS011;32921;53.256;8.198;2024-01-30T12:11:25;634.15;;;583.28;;
47161;SDS011;32921;53.256;8.198;2024-01-30T12:13:52;622.38;;;572.45;;
47161;SDS011;32921;53.256;8.198;2024-01-30T12:16:19;608.90;;;560.53;;
47161;SDS011;32921;53.256;8.198;2024-01-30T12:18:45;619.20;;;570.10;;
47161;SDS011;32921;53.256;8.198;2024-01-30T12:21:11;581.20;;;535.22;;
47161;SDS011;32921;53.256;8.198;2024-01-30T12:23:36;577.33;;;531.17;;
47161;SDS011;32921;53.256;8.198;2024-01-30T12:26:02;561.03;;;516.60;;
47161;SDS011;32921;53.256;8.198;2024-01-30T12:28:31;600.13;;;552.20;;
47161;SDS011;32921;53.256;8.198;2024-01-30T12:31:01;565.47;;;520.22;;
47161;SDS011;32921;53.256;8.198;2024-01-30T12:33:28;585.22;;;537.33;;
47161;SDS011;32921;53.256;8.198;2024-01-30T12:35:54;589.10;;;541.70;;
47161;SDS011;32921;53.256;8.198;2024-01-30T12:38:21;596.92;;;549.10;;
47161;SDS011;32921;53.256;8.198;2024-01-30T12:40:46;620.13;;;569.60;;
47161;SDS011;32921;53.256;8.198;2024-01-30T12:43:13;597.95;;;550.17;;
47161;SDS011;32921;53.256;8.198;2024-01-30T12:45:39;571.00;;;525.03;;
47161;SDS011;32921;53.256;8.198;2024-01-30T12:48:06;619.72;;;569.92;;
47161;SDS011;32921;53.256;8.198;2024-01-30T12:50:32;586.22;;;539.08;;
47161;SDS011;32921;53.256;8.198;2024-01-30T12:52:58;648.88;;;596.33;;
47161;SDS011;32921;53.256;8.198;2024-01-30T12:55:23;626.38;;;574.63;;
47161;SDS011;32921;53.256;8.198;2024-01-30T12:57:50;637.13;;;585.63;;
47161;SDS011;32921;53.256;8.198;2024-01-30T13:00:15;641.85;;;589.88;;
47161;SDS011;32921;53.256;8.198;2024-01-30T13:02:42;644.33;;;592.50;;
47161;SDS011;32921;53.256;8.198;2024-01-30T13:05:09;652.28;;;599.17;;
47161;SDS011;32921;53.256;8.198;2024-01-30T13:07:35;654.50;;;602.03;;
47161;SDS011;32921;53.256;8.198;2024-01-30T13:10:01;660.85;;;608.25;;
47161;SDS011;32921;53.256;8.198;2024-01-30T13:12:28;614.83;;;566.13;;
47161;SDS011;32921;53.256;8.198;2024-01-30T13:14:54;635.50;;;585.00;;
47161;SDS011;32921;53.256;8.198;2024-01-30T13:17:19;619.80;;;569.80;;
47161;SDS011;32921;53.256;8.198;2024-01-30T13:19:45;606.83;;;558.00;;
47161;SDS011;32921;53.256;8.198;2024-01-30T13:22:11;605.97;;;558.00;;
47161;SDS011;32921;53.256;8.198;2024-01-30T13:24:37;629.58;;;579.33;;
47161;SDS011;32921;53.256;8.198;2024-01-30T13:27:02;643.03;;;592.33;;
47161;SDS011;32921;53.256;8.198;2024-01-30T13:29:30;613.55;;;563.80;;
47161;SDS011;32921;53.256;8.198;2024-01-30T13:31:56;622.08;;;572.33;;
47161;SDS011;32921;53.256;8.198;2024-01-30T13:34:21;645.58;;;594.33;;
47161;SDS011;32921;53.256;8.198;2024-01-30T13:36:47;690.50;;;634.25;;
47161;SDS011;32921;53.256;8.198;2024-01-30T13:39:14;634.20;;;583.83;;
47161;SDS011;32921;53.256;8.198;2024-01-30T13:41:41;629.13;;;578.15;;
47161;SDS011;32921;53.256;8.198;2024-01-30T13:44:07;642.40;;;591.45;;
47161;SDS011;32921;53.256;8.198;2024-01-30T13:46:34;620.17;;;571.58;;
47161;SDS011;32921;53.256;8.198;2024-01-30T13:49:00;686.20;;;632.35;;
47161;SDS011;32921;53.256;8.198;2024-01-30T13:51:26;764.97;;;700.15;;